createdAt,value
2023-03-27T00:01:03.680Z,67.33
2023-03-27T00:05:03.649Z,69.53
2023-03-27T00:09:03.631Z,61.88
2023-03-27T00:13:03.657Z,75.04
2023-03-27T00:17:03.777Z,57.41
2023-03-27T00:21:03.841Z,79.94
2023-03-27T00:25:03.949Z,81.55
2023-03-27T00:29:04.025Z,73.81
2023-03-27T00:33:04.152Z,48.48
2023-03-27T00:37:04.170Z,75.19
2023-03-27T00:41:04.249Z,78.20
2023-03-27T00:45:04.308Z,77.71
2023-03-27T00:49:04.389Z,67.17
2023-03-27T00:53:04.481Z,64.30
2023-03-27T00:57:04.545Z,80.61
2023-03-27T01:01:04.627Z,67.00
2023-03-27T01:05:04.704Z,61.11
2023-03-27T01:09:04.786Z,74.39
2023-03-27T01:13:04.896Z,60.05
2023-03-27T01:17:04.909Z,71.95
2023-03-27T01:21:05.000Z,78.68
2023-03-27T01:25:05.016Z,76.21
2023-03-27T01:29:05.045Z,69.88
2023-03-27T01:33:05.128Z,63.44
2023-03-27T01:37:05.131Z,58.56
2023-03-27T01:41:05.213Z,69.10
2023-03-27T01:45:05.294Z,64.00
2023-03-27T01:49:05.368Z,55.15
2023-03-27T01:53:05.372Z,76.23
2023-03-27T01:57:05.472Z,61.29
2023-03-27T02:01:05.792Z,58.67
2023-03-27T02:05:05.589Z,45.26
2023-03-27T02:09:05.561Z,48.94
2023-03-27T02:13:05.574Z,43.58
2023-03-27T02:17:05.613Z,66.22
2023-03-27T02:21:05.629Z,46.85
2023-03-27T02:25:05.625Z,73.90
2023-03-27T02:29:05.696Z,64.63
2023-03-27T02:33:05.762Z,49.60
2023-03-27T02:37:05.838Z,66.55
2023-03-27T02:41:05.893Z,66.51
2023-03-27T02:45:06.017Z,61.38
2023-03-27T02:49:06.104Z,65.90
2023-03-27T02:53:06.200Z,55.12
2023-03-27T02:57:06.378Z,62.86
2023-03-27T03:01:06.457Z,57.81
2023-03-27T03:05:06.533Z,56.35
2023-03-27T03:09:06.578Z,66.56
2023-03-27T03:13:06.634Z,50.29
2023-03-27T03:17:06.728Z,59.66
2023-03-27T03:21:06.829Z,67.39
2023-03-27T03:25:06.923Z,67.64
2023-03-27T03:29:06.949Z,65.12
2023-03-27T03:33:07.020Z,50.97
2023-03-27T03:37:07.127Z,76.93
2023-03-27T03:41:07.208Z,69.50
2023-03-27T03:45:07.305Z,68.24
2023-03-27T03:49:07.324Z,70.38
2023-03-27T03:53:07.411Z,66.46
2023-03-27T03:57:07.565Z,25.00
2023-03-27T04:01:07.598Z,87.09
2023-03-27T04:05:08.616Z,78.67
2023-03-27T04:09:07.644Z,90.92
2023-03-27T04:13:07.603Z,44.29
2023-03-27T04:17:07.574Z,95.92
2023-03-27T04:21:07.533Z,70.80
2023-03-27T04:25:07.508Z,90.09
2023-03-27T04:29:07.468Z,88.28
2023-03-27T04:33:07.522Z,82.46
2023-03-27T04:37:07.401Z,82.75
2023-03-27T04:41:07.376Z,86.87
2023-03-27T04:45:07.317Z,85.06
2023-03-27T04:49:07.303Z,88.32
2023-03-27T04:53:07.268Z,63.58
2023-03-27T04:57:07.271Z,44.49
2023-03-27T05:01:07.226Z,36.18
2023-03-27T05:05:07.153Z,31.59
2023-03-27T05:09:07.105Z,55.52
2023-03-27T05:13:07.073Z,62.80
2023-03-27T05:17:07.031Z,85.95
2023-03-27T05:21:07.032Z,107.95
2023-03-27T05:25:06.977Z,125.09
2023-03-27T05:29:06.948Z,115.88
2023-03-27T05:33:06.944Z,30.57
2023-03-27T05:37:06.893Z,26.13
2023-03-27T05:41:07.007Z,88.36
2023-03-27T05:45:07.165Z,0.00
2023-03-27T05:49:07.275Z,0.00
2023-03-27T05:53:07.393Z,0.00
2023-03-27T05:57:07.486Z,89.51
2023-03-27T06:01:07.647Z,224.30
2023-03-27T06:05:07.756Z,275.59
2023-03-27T06:09:07.989Z,240.53
2023-03-27T06:13:08.094Z,263.85
2023-03-27T06:17:08.158Z,255.74
2023-03-27T06:21:08.500Z,253.28
2023-03-27T06:25:08.182Z,248.97
2023-03-27T06:29:08.676Z,247.88
2023-03-27T06:33:08.566Z,247.04
2023-03-27T06:37:08.081Z,243.76
2023-03-27T06:41:08.517Z,250.00
2023-03-27T06:45:08.046Z,248.82
2023-03-27T06:49:07.984Z,249.28
2023-03-27T06:53:19.561Z,250.00
2023-03-27T06:57:08.944Z,250.83
2023-03-27T07:01:07.897Z,250.00
2023-03-27T07:05:08.032Z,249.03
2023-03-27T07:09:08.010Z,248.25
2023-03-27T07:13:07.775Z,249.96
2023-03-27T07:17:09.297Z,249.56
2023-03-27T07:21:07.740Z,249.75
2023-03-27T07:25:07.690Z,249.27
2023-03-27T07:29:07.822Z,233.98
2023-03-27T09:27:17.128Z,25.00
2023-03-27T09:31:17.168Z,25.00
2023-03-27T09:35:16.867Z,0.00
2023-03-27T09:39:17.161Z,0.00
2023-03-27T09:43:17.157Z,25.00
2023-03-27T09:47:17.142Z,25.11
2023-03-27T09:51:16.795Z,31.08
2023-03-27T09:55:16.821Z,32.02
2023-03-27T09:59:16.803Z,29.92
2023-03-27T10:03:16.916Z,32.14
2023-03-27T10:07:16.747Z,31.47
2023-03-27T10:11:16.725Z,31.85
2023-03-27T10:15:16.664Z,31.65
2023-03-27T10:19:16.615Z,32.98
2023-03-27T10:23:16.659Z,43.28
2023-03-27T10:27:16.546Z,0.00
2023-03-27T10:31:24.269Z,0.00
2023-03-27T10:35:16.477Z,0.00
2023-03-27T10:39:16.461Z,0.00
2023-03-27T10:43:16.405Z,25.00
2023-03-27T10:47:16.410Z,62.48
2023-03-27T10:51:16.339Z,49.83
2023-03-27T10:55:16.735Z,0.00
2023-03-27T10:59:16.511Z,216.25
2023-03-27T11:03:16.644Z,255.49
2023-03-27T11:07:16.802Z,249.54
2023-03-27T11:11:16.790Z,249.00
2023-03-27T11:15:16.913Z,248.13
2023-03-27T11:19:17.209Z,242.90
2023-03-27T11:23:17.191Z,248.54
2023-03-27T11:27:16.767Z,243.91
2023-03-27T11:31:16.749Z,238.98
2023-03-27T11:35:16.660Z,234.27
2023-03-27T11:39:16.638Z,229.19
2023-03-27T11:43:16.615Z,219.85
2023-03-27T11:47:16.524Z,209.82
2023-03-27T11:51:16.653Z,200.82
2023-03-27T11:55:16.875Z,198.16
2023-03-27T11:59:17.101Z,192.41
2023-03-27T12:03:17.332Z,188.84
2023-03-27T12:07:26.331Z,189.07
2023-03-27T12:11:18.685Z,189.36
2023-03-27T12:15:17.444Z,181.77
2023-03-27T12:19:28.572Z,180.53
2023-03-27T12:23:18.465Z,178.28
2023-03-27T12:27:17.581Z,188.85
2023-03-27T12:31:17.833Z,185.46
2023-03-27T12:35:21.334Z,182.41
2023-03-27T12:39:17.891Z,187.25
2023-03-27T12:43:17.867Z,188.02
2023-03-27T12:47:17.828Z,189.97
2023-03-27T12:51:17.808Z,188.69
2023-03-27T12:55:17.765Z,185.51
2023-03-27T12:59:17.735Z,188.08
2023-03-27T13:03:17.845Z,185.12
2023-03-27T13:07:18.212Z,178.16
2023-03-27T13:11:18.337Z,173.21
2023-03-27T13:15:18.170Z,166.06
2023-03-27T13:19:18.164Z,166.87
2023-03-27T13:23:18.381Z,150.92
2023-03-27T13:27:18.416Z,147.10
2023-03-27T13:31:18.614Z,139.93
2023-03-27T13:35:18.955Z,131.82
2023-03-27T13:39:18.852Z,134.42
2023-03-27T13:43:19.043Z,130.80
2023-03-27T13:47:19.238Z,122.87
2023-03-27T13:51:19.375Z,125.48
2023-03-27T13:55:19.559Z,119.27
2023-03-27T13:59:19.628Z,116.34
2023-03-27T14:03:19.962Z,115.14
2023-03-27T14:07:20.245Z,116.97
2023-03-27T14:11:20.116Z,113.22
2023-03-27T14:15:20.301Z,103.71
2023-03-27T14:19:20.453Z,113.20
2023-03-27T14:23:20.550Z,105.96
2023-03-27T14:27:20.827Z,105.27
2023-03-27T14:31:20.949Z,101.04
2023-03-27T14:35:21.122Z,96.53
2023-03-27T14:39:21.271Z,101.38
2023-03-27T14:43:21.474Z,104.39
2023-03-27T14:47:21.709Z,92.23
2023-03-27T14:51:21.947Z,97.48
2023-03-27T14:55:22.111Z,122.05
2023-03-27T14:59:22.045Z,119.60
2023-03-27T15:03:22.073Z,127.25
2023-03-27T15:07:21.982Z,131.39
2023-03-27T15:11:22.011Z,138.29
2023-03-27T15:15:21.941Z,122.75
2023-03-27T15:19:21.835Z,130.83
2023-03-27T15:23:21.908Z,138.60
2023-03-27T15:27:21.767Z,127.65
2023-03-27T15:31:21.744Z,103.25
2023-03-27T15:35:21.728Z,94.69
2023-03-27T15:39:21.875Z,107.11
2023-03-27T15:43:41.999Z,25.00
2023-03-27T15:44:41.999Z,25.00
2023-03-27T15:45:41.986Z,25.00
2023-03-27T15:46:41.999Z,25.00
2023-03-27T15:47:42.050Z,25.00
2023-03-27T15:48:41.946Z,25.82
2023-03-27T15:49:41.971Z,46.65
2023-03-27T15:50:41.954Z,42.24
2023-03-27T15:51:41.934Z,24.41
2023-03-27T15:52:41.941Z,49.37
2023-03-27T15:53:41.961Z,58.93
2023-03-27T15:54:41.915Z,61.78
2023-03-27T15:55:41.890Z,78.30
2023-03-27T15:56:41.925Z,69.50
2023-03-27T15:57:41.888Z,69.46
2023-03-27T15:58:41.875Z,70.28
2023-03-27T15:59:52.757Z,71.51
2023-03-27T16:00:42.878Z,71.86
2023-03-27T16:01:42.072Z,64.15
2023-03-27T16:02:41.946Z,56.75
2023-03-27T16:03:41.903Z,63.99
2023-03-27T16:04:41.850Z,70.68
2023-03-27T16:05:41.832Z,50.58
2023-03-27T16:06:41.906Z,62.94
2023-03-27T16:07:41.815Z,63.70
2023-03-27T16:08:41.809Z,67.55
2023-03-27T16:09:41.799Z,72.27
2023-03-27T16:10:41.789Z,75.45
2023-03-27T16:11:41.789Z,61.38
2023-03-27T16:12:41.778Z,66.31
2023-03-27T16:13:41.787Z,60.23
2023-03-27T16:14:41.775Z,49.75
2023-03-27T16:15:41.793Z,55.14
2023-03-27T16:16:41.837Z,46.11
2023-03-27T16:17:41.864Z,28.69
2023-03-27T16:18:41.843Z,45.72
2023-03-27T16:19:41.887Z,26.01
2023-03-27T16:20:41.916Z,47.12
2023-03-27T16:21:41.974Z,49.33
2023-03-27T16:22:41.991Z,44.93
2023-03-27T16:23:42.039Z,80.32
2023-03-27T16:24:42.065Z,76.18
2023-03-27T16:25:42.105Z,55.57
2023-03-27T16:26:42.151Z,41.04
2023-03-27T16:27:42.174Z,26.35
2023-03-27T16:28:42.215Z,29.27
2023-03-27T16:29:42.296Z,37.75
2023-03-27T16:30:42.458Z,32.44
2023-03-27T16:31:42.426Z,38.09
2023-03-27T16:32:42.478Z,28.75
2023-03-27T16:33:42.448Z,37.45
2023-03-27T16:34:42.508Z,70.51
2023-03-27T16:35:42.586Z,90.51
2023-03-27T16:36:42.589Z,61.36
2023-03-27T16:37:42.636Z,98.89
2023-03-27T16:38:42.686Z,108.07
2023-03-27T16:39:42.714Z,108.79
2023-03-27T16:40:42.771Z,109.80
2023-03-27T16:41:42.838Z,104.35
2023-03-27T16:42:42.940Z,84.11
2023-03-27T16:43:42.917Z,103.11
2023-03-27T16:44:42.974Z,111.08
2023-03-27T16:45:43.018Z,95.55
2023-03-27T16:46:43.069Z,102.67
2023-03-27T16:47:43.125Z,111.24
2023-03-27T16:48:43.138Z,96.08
2023-03-27T16:49:43.186Z,100.85
2023-03-27T16:50:43.238Z,70.81
2023-03-27T16:51:43.286Z,74.53
2023-03-27T16:52:43.341Z,82.48
2023-03-27T16:53:43.385Z,84.57
2023-03-27T16:54:43.423Z,36.01
2023-03-27T16:55:43.492Z,59.45
2023-03-27T16:56:43.562Z,27.50
2023-03-27T16:57:43.581Z,29.89
2023-03-27T16:58:43.652Z,45.75
2023-03-27T16:59:43.684Z,47.94
2023-03-27T17:00:43.763Z,54.76
2023-03-27T17:01:43.805Z,71.23
2023-03-27T17:02:43.875Z,54.35
2023-03-27T17:03:43.900Z,39.82
2023-03-27T17:04:44.043Z,37.46
2023-03-27T17:05:44.063Z,60.54
2023-03-27T17:06:44.125Z,56.29
2023-03-27T17:07:44.170Z,39.65
2023-03-27T17:08:44.166Z,30.03
2023-03-27T17:09:44.224Z,50.37
2023-03-27T17:10:44.274Z,31.01
2023-03-27T17:11:44.373Z,28.83
2023-03-27T17:12:44.400Z,26.98
2023-03-27T17:13:44.461Z,24.68
2023-03-27T17:14:44.501Z,43.94
2023-03-27T17:15:44.570Z,29.78
2023-03-27T17:16:44.629Z,58.44
2023-03-27T17:17:44.734Z,82.47
2023-03-27T17:18:44.745Z,110.11
2023-03-27T17:19:44.818Z,97.21
2023-03-27T17:20:44.847Z,89.04
2023-03-27T17:21:44.918Z,69.04
2023-03-27T17:22:44.987Z,56.35
2023-03-27T17:23:45.043Z,89.72
2023-03-27T17:24:56.150Z,107.89
2023-03-27T17:25:46.093Z,59.69
2023-03-27T17:26:45.076Z,76.76
2023-03-27T17:27:45.084Z,57.11
2023-03-27T17:28:45.117Z,100.21
2023-03-27T17:29:45.060Z,64.38
2023-03-27T17:30:56.525Z,52.37
2023-03-27T17:31:46.123Z,52.77
2023-03-27T17:32:45.080Z,42.92
2023-03-27T17:33:45.054Z,49.83
2023-03-27T17:34:45.042Z,39.52
2023-03-27T17:35:45.068Z,48.64
2023-03-27T17:36:52.341Z,50.45
2023-03-27T17:37:46.037Z,34.17
2023-03-27T17:38:45.017Z,38.34
2023-03-27T17:39:45.010Z,48.77
2023-03-27T17:40:45.006Z,48.19
2023-03-27T17:41:44.979Z,48.72
2023-03-27T17:42:44.993Z,27.59
2023-03-27T17:43:44.970Z,65.77
2023-03-27T17:44:45.236Z,52.03
2023-03-27T17:45:44.977Z,68.02
2023-03-27T17:46:45.008Z,72.86
2023-03-27T17:47:45.026Z,75.51
2023-03-27T17:48:45.000Z,78.68
2023-03-27T17:49:45.044Z,72.04
2023-03-27T17:50:45.249Z,52.61
2023-03-27T17:51:45.064Z,53.35
2023-03-27T17:52:45.063Z,78.23
2023-03-27T17:53:45.043Z,73.13
2023-03-27T17:54:45.030Z,76.77
2023-03-27T17:55:45.037Z,73.01
2023-03-27T17:56:45.058Z,56.03
2023-03-27T17:57:47.501Z,59.41
2023-03-27T17:58:46.016Z,41.34
2023-03-27T17:59:44.999Z,47.06
2023-03-27T18:00:45.007Z,61.11
2023-03-27T18:01:45.031Z,47.35
2023-03-27T18:02:45.090Z,54.30
2023-03-27T18:03:45.098Z,47.45
2023-03-27T18:04:44.977Z,45.92
2023-03-27T18:05:44.976Z,64.23
2023-03-27T18:06:45.003Z,46.24
2023-03-27T18:07:44.953Z,59.03
2023-03-27T18:08:44.966Z,44.80
2023-03-27T18:09:44.944Z,50.54
2023-03-27T18:10:45.008Z,67.33
2023-03-27T18:11:44.933Z,74.22
2023-03-27T18:12:44.932Z,36.46
2023-03-27T18:13:44.934Z,61.42
2023-03-27T18:14:44.937Z,42.39
2023-03-27T18:15:45.077Z,63.62
2023-03-27T18:16:45.032Z,59.48
2023-03-27T18:17:44.975Z,38.43
2023-03-27T18:18:44.904Z,55.48
2023-03-27T18:19:44.904Z,64.47
2023-03-27T18:20:44.887Z,74.79
2023-03-27T18:21:44.894Z,80.87
2023-03-27T18:22:44.869Z,63.77
2023-03-27T18:23:46.155Z,58.01
2023-03-27T18:24:44.869Z,63.69
2023-03-27T18:25:44.848Z,46.92
2023-03-27T18:26:44.864Z,78.42
2023-03-27T18:27:44.866Z,58.82
2023-03-27T18:28:44.827Z,50.55
2023-03-27T18:29:44.827Z,42.53
2023-03-27T18:30:44.845Z,40.29
2023-03-27T18:31:44.896Z,27.35
2023-03-27T18:32:44.863Z,40.72
2023-03-27T18:33:44.830Z,40.59
2023-03-27T18:34:44.821Z,58.56
2023-03-27T18:35:44.837Z,71.69
2023-03-27T18:36:44.831Z,59.43
2023-03-27T18:37:44.838Z,51.09
2023-03-27T18:38:45.351Z,35.58
2023-03-27T18:39:44.819Z,61.34
2023-03-27T18:40:44.813Z,65.27
2023-03-27T18:41:44.837Z,60.20
2023-03-27T18:42:44.906Z,64.93
2023-03-27T18:43:44.824Z,38.82
2023-03-27T18:44:44.845Z,44.94
2023-03-27T18:45:44.828Z,31.37
2023-03-27T18:46:44.846Z,50.59
2023-03-27T18:47:44.904Z,51.72
2023-03-27T18:48:44.876Z,36.99
2023-03-27T18:49:44.880Z,44.26
2023-03-27T18:50:44.875Z,55.16
2023-03-27T18:51:44.896Z,53.28
2023-03-27T18:52:44.882Z,47.55
2023-03-27T18:53:44.878Z,58.75
2023-03-27T18:54:44.870Z,48.81
2023-03-27T18:55:44.897Z,43.17
2023-03-27T18:56:44.943Z,39.41
2023-03-27T18:57:44.922Z,68.60
2023-03-27T18:58:44.922Z,81.80
2023-03-27T18:59:44.917Z,62.23
2023-03-27T19:00:44.944Z,40.61
2023-03-27T19:01:44.942Z,62.55
2023-03-27T19:02:45.037Z,56.13
2023-03-27T19:03:44.928Z,58.75
2023-03-27T19:04:44.934Z,51.08
2023-03-27T19:05:44.957Z,59.73
2023-03-27T19:06:44.945Z,83.11
2023-03-27T19:07:45.358Z,57.81
2023-03-27T19:08:44.971Z,37.69
2023-03-27T19:09:44.973Z,72.44
2023-03-27T19:10:44.968Z,63.34
2023-03-27T19:11:44.991Z,66.52
2023-03-27T19:12:44.988Z,56.58
2023-03-27T19:13:45.018Z,56.74
2023-03-27T19:14:45.010Z,57.76
2023-03-27T19:15:45.020Z,93.63
2023-03-27T19:16:45.067Z,78.80
2023-03-27T19:17:45.095Z,80.33
2023-03-27T19:18:45.053Z,66.43
2023-03-27T19:19:46.526Z,68.48
2023-03-27T19:20:45.053Z,70.66
2023-03-27T19:21:45.046Z,58.99
2023-03-27T19:22:45.056Z,62.98
2023-03-27T19:23:45.098Z,63.25
2023-03-27T19:24:45.092Z,49.65
2023-03-27T19:25:45.101Z,46.57
2023-03-27T19:26:45.115Z,57.15
2023-03-27T19:27:45.146Z,62.06
2023-03-27T19:28:45.173Z,69.42
2023-03-27T19:29:45.162Z,77.06
2023-03-27T19:30:45.198Z,78.71
2023-03-27T19:31:45.181Z,78.63
2023-03-27T19:32:45.217Z,62.38
2023-03-27T19:33:45.210Z,55.82
2023-03-27T19:34:45.201Z,50.45
2023-03-27T19:35:45.238Z,68.48
2023-03-27T19:36:45.246Z,85.48
2023-03-27T19:37:45.250Z,79.55
2023-03-27T19:38:45.260Z,57.54
2023-03-27T19:39:45.281Z,74.38
2023-03-27T19:40:45.275Z,69.62
2023-03-27T19:41:45.308Z,73.79
2023-03-27T19:42:45.327Z,78.80
2023-03-27T19:43:45.317Z,76.56
2023-03-27T19:44:45.346Z,72.03
2023-03-27T19:45:45.348Z,66.25
2023-03-27T19:46:45.377Z,75.12
2023-03-27T19:47:45.413Z,81.77
2023-03-27T19:48:45.430Z,70.72
2023-03-27T19:49:45.376Z,68.36
2023-03-27T19:50:45.398Z,63.69
2023-03-27T19:51:45.419Z,86.18
2023-03-27T19:52:51.598Z,77.11
2023-03-27T19:53:46.422Z,77.37
2023-03-27T19:54:45.412Z,45.56
2023-03-27T19:55:45.389Z,61.91
2023-03-27T19:56:45.410Z,69.77
2023-03-27T19:57:45.377Z,80.53
2023-03-27T19:58:45.360Z,68.66
2023-03-27T19:59:45.369Z,60.88
2023-03-27T20:00:45.357Z,65.33
2023-03-27T20:01:45.373Z,70.88
2023-03-27T20:02:45.424Z,74.76
2023-03-27T20:03:45.481Z,71.02
2023-03-27T20:04:45.327Z,60.30
2023-03-27T20:05:45.318Z,87.61
2023-03-27T20:06:45.319Z,74.51
2023-03-27T20:07:45.325Z,66.10
2023-03-27T20:08:45.347Z,75.95
2023-03-27T20:09:45.309Z,51.48
2023-03-27T20:10:45.304Z,74.20
2023-03-27T20:11:45.294Z,79.53
2023-03-27T20:12:45.297Z,76.84
2023-03-27T20:13:55.925Z,60.14
2023-03-27T20:14:51.388Z,60.85
2023-03-27T20:15:46.327Z,60.81
2023-03-27T20:16:45.269Z,62.23
2023-03-27T20:17:45.289Z,66.98
2023-03-27T20:18:45.251Z,67.95
2023-03-27T20:19:45.245Z,48.87
2023-03-27T20:20:45.241Z,57.18
2023-03-27T20:21:45.221Z,58.98
2023-03-27T20:22:56.835Z,63.50
2023-03-27T20:23:46.227Z,63.61
2023-03-27T20:24:45.221Z,54.52
2023-03-27T20:25:45.215Z,64.18
2023-03-27T20:26:45.205Z,69.52
2023-03-27T20:27:45.197Z,90.65
2023-03-27T20:28:45.174Z,90.26
2023-03-27T20:29:45.177Z,48.74
2023-03-27T20:30:45.170Z,76.26
2023-03-27T20:31:45.189Z,77.18
2023-03-27T20:32:45.212Z,65.09
2023-03-27T20:33:45.143Z,86.61
2023-03-27T20:34:45.141Z,88.28
2023-03-27T20:35:45.148Z,49.93
2023-03-27T20:36:45.139Z,55.75
2023-03-27T20:37:45.126Z,75.48
2023-03-27T20:38:45.123Z,76.61
2023-03-27T20:39:45.117Z,93.66
2023-03-27T20:40:52.978Z,73.34
2023-03-27T20:41:46.111Z,73.35
2023-03-27T20:42:45.095Z,68.25
2023-03-27T20:43:45.091Z,74.53
2023-03-27T20:44:45.078Z,75.63
2023-03-27T20:45:45.061Z,80.12
2023-03-27T20:46:45.122Z,81.89
2023-03-27T20:47:45.087Z,70.38
2023-03-27T20:48:53.684Z,81.74
2023-03-27T20:49:46.052Z,81.78
2023-03-27T20:50:45.041Z,69.30
2023-03-27T20:51:45.034Z,39.36
2023-03-27T20:52:45.054Z,74.40
2023-03-27T20:53:45.000Z,66.11
2023-03-27T20:54:45.000Z,67.89
2023-03-27T20:55:57.037Z,72.21
2023-03-27T20:56:46.021Z,53.91
2023-03-27T20:57:44.960Z,69.91
2023-03-27T20:58:44.969Z,56.37
2023-03-27T20:59:47.024Z,57.94
2023-03-27T21:00:45.211Z,73.39
2023-03-27T21:01:45.237Z,43.16
2023-03-27T21:02:45.305Z,39.05
2023-03-27T21:03:45.230Z,72.97
2023-03-27T21:04:45.258Z,70.87
2023-03-27T21:05:45.257Z,76.18
2023-03-27T21:06:45.275Z,79.49
2023-03-27T21:07:45.313Z,78.06
2023-03-27T21:08:45.332Z,81.48
2023-03-27T21:09:45.366Z,65.03
2023-03-27T21:10:45.392Z,70.63
2023-03-27T21:11:45.403Z,86.77
2023-03-27T21:12:45.451Z,72.55
2023-03-27T21:13:45.460Z,62.67
2023-03-27T21:14:45.499Z,77.76
2023-03-27T21:15:45.499Z,82.10
2023-03-27T21:16:45.529Z,79.51
2023-03-27T21:17:45.600Z,80.05
2023-03-27T21:18:45.587Z,78.32
2023-03-27T21:19:45.613Z,57.19
2023-03-27T21:20:45.616Z,73.53
2023-03-27T21:21:45.664Z,78.88
2023-03-27T21:22:45.659Z,80.65
2023-03-27T21:23:45.704Z,88.37
2023-03-27T21:24:45.723Z,77.46
2023-03-27T21:25:45.749Z,76.43
2023-03-27T21:26:45.766Z,73.00
2023-03-27T21:27:45.793Z,67.12
2023-03-27T21:28:45.811Z,82.34
2023-03-27T21:29:45.848Z,74.30
2023-03-27T21:30:47.145Z,76.93
2023-03-27T21:31:45.934Z,73.49
2023-03-27T21:32:45.876Z,74.87
2023-03-27T21:33:45.853Z,94.19
2023-03-27T21:34:45.853Z,61.45
2023-03-27T21:35:45.854Z,76.67
2023-03-27T21:36:45.883Z,66.53
2023-03-27T21:37:45.824Z,68.05
2023-03-27T21:38:45.833Z,60.36
2023-03-27T21:39:45.820Z,64.91
2023-03-27T21:40:45.813Z,67.31
2023-03-27T21:41:45.784Z,77.86
2023-03-27T21:42:45.802Z,68.96
2023-03-27T21:43:45.790Z,68.68
2023-03-27T21:44:50.652Z,72.95
2023-03-27T21:45:46.874Z,72.96
2023-03-27T21:46:45.779Z,71.00
2023-03-27T21:47:47.857Z,71.45
2023-03-27T21:48:45.742Z,77.41
2023-03-27T21:49:45.735Z,68.48
2023-03-27T21:50:45.733Z,80.24
2023-03-27T21:51:45.719Z,68.02
2023-03-27T21:52:45.720Z,71.21
2023-03-27T21:53:45.734Z,72.29
2023-03-27T21:54:56.631Z,74.11
2023-03-27T21:55:46.764Z,74.17
2023-03-27T21:56:45.774Z,61.77
2023-03-27T21:57:45.788Z,54.57
2023-03-27T21:58:45.755Z,64.52
2023-03-27T21:59:45.725Z,78.44
2023-03-27T22:00:45.746Z,77.72
2023-03-27T22:01:45.739Z,72.25
2023-03-27T22:02:45.748Z,61.73
2023-03-27T22:03:45.703Z,52.60
2023-03-27T22:04:45.717Z,65.67
2023-03-27T22:05:54.259Z,71.87
2023-03-27T22:06:46.681Z,71.96
2023-03-27T22:07:45.691Z,72.87
2023-03-27T22:08:45.683Z,78.80
2023-03-27T22:09:45.660Z,81.44
2023-03-27T22:10:45.659Z,91.54
2023-03-27T22:11:45.652Z,75.21
2023-03-27T22:12:45.657Z,89.94
2023-03-27T22:13:45.655Z,76.37
2023-03-27T22:14:45.820Z,83.73
2023-03-27T22:15:45.672Z,86.29
2023-03-27T22:16:45.639Z,80.76
2023-03-27T22:17:45.650Z,90.97
2023-03-27T22:18:45.636Z,85.56
2023-03-27T22:19:45.602Z,69.73
2023-03-27T22:20:45.613Z,72.91
2023-03-27T22:21:45.586Z,86.71
2023-03-27T22:22:45.602Z,90.23
2023-03-27T22:23:45.677Z,86.20
2023-03-27T22:24:45.657Z,76.37
2023-03-27T22:25:45.697Z,72.14
2023-03-27T22:26:45.718Z,71.55
2023-03-27T22:27:45.748Z,65.61
2023-03-27T22:28:45.774Z,68.34
2023-03-27T22:29:45.791Z,83.35
2023-03-27T22:30:45.837Z,78.59
2023-03-27T22:31:45.892Z,74.52
2023-03-27T22:32:45.908Z,76.94
2023-03-27T22:33:45.908Z,73.18
2023-03-27T22:34:45.934Z,72.96
2023-03-27T22:35:46.007Z,76.93
2023-03-27T22:36:46.014Z,78.22
2023-03-27T22:37:46.032Z,89.24
2023-03-27T22:38:46.051Z,76.81
2023-03-27T22:39:46.085Z,79.74
2023-03-27T22:40:46.135Z,63.23
2023-03-27T22:41:46.143Z,82.60
2023-03-27T22:42:46.184Z,82.80
2023-03-27T22:43:49.287Z,70.59
2023-03-27T22:44:46.191Z,76.43
2023-03-27T22:45:46.199Z,69.64
2023-03-27T22:46:46.194Z,68.91
2023-03-27T22:47:46.179Z,58.98
2023-03-27T22:48:46.167Z,73.76
2023-03-27T22:49:46.166Z,85.75
2023-03-27T22:50:46.174Z,86.17
2023-03-27T22:51:46.141Z,89.04
2023-03-27T22:52:46.147Z,91.73
2023-03-27T22:53:46.135Z,81.58
2023-03-27T22:54:46.150Z,65.95
2023-03-27T22:55:46.119Z,68.49
2023-03-27T22:56:46.135Z,64.81
2023-03-27T22:57:46.124Z,93.70
2023-03-27T22:58:46.099Z,101.21
2023-03-27T22:59:46.097Z,81.64
2023-03-27T23:00:46.070Z,90.83
2023-03-27T23:01:46.131Z,61.20
2023-03-27T23:02:46.150Z,62.76
2023-03-27T23:03:46.141Z,68.51
2023-03-27T23:04:46.046Z,72.73
2023-03-27T23:05:46.035Z,61.63
2023-03-27T23:06:46.057Z,66.22
2023-03-27T23:07:46.033Z,69.60
2023-03-27T23:08:46.044Z,86.33
2023-03-27T23:09:46.052Z,84.33
2023-03-27T23:10:46.017Z,88.40
2023-03-27T23:11:46.029Z,90.07
2023-03-27T23:12:46.012Z,83.44
2023-03-27T23:13:46.033Z,90.65
2023-03-27T23:14:45.987Z,77.45
2023-03-27T23:15:45.977Z,74.78
2023-03-27T23:16:46.024Z,79.94
2023-03-27T23:17:46.031Z,80.11
2023-03-27T23:18:45.959Z,66.55
2023-03-27T23:19:45.960Z,64.77
2023-03-27T23:20:45.959Z,69.11
2023-03-27T23:21:45.946Z,75.49
2023-03-27T23:22:45.926Z,78.43
2023-03-27T23:23:45.952Z,82.43
2023-03-27T23:24:45.932Z,84.04
2023-03-27T23:25:45.924Z,67.76
2023-03-27T23:26:45.918Z,87.51
2023-03-27T23:27:45.917Z,89.07
2023-03-27T23:28:45.909Z,99.99
2023-03-27T23:29:45.900Z,89.73
2023-03-27T23:30:45.881Z,85.68
2023-03-27T23:31:45.927Z,93.07
2023-03-27T23:32:45.909Z,93.56
2023-03-27T23:33:45.876Z,95.46
2023-03-27T23:34:45.919Z,92.81
2023-03-27T23:35:45.906Z,90.47
2023-03-27T23:36:45.952Z,95.01
2023-03-27T23:37:45.963Z,80.09
2023-03-27T23:38:46.004Z,84.72
2023-03-27T23:39:46.069Z,82.69
2023-03-27T23:40:46.085Z,92.92
2023-03-27T23:41:46.092Z,90.64
2023-03-27T23:42:46.121Z,82.88
2023-03-27T23:43:46.164Z,79.26
2023-03-27T23:44:46.197Z,72.52
2023-03-27T23:45:46.246Z,83.74
2023-03-27T23:46:46.251Z,93.72
2023-03-27T23:47:46.309Z,96.63
2023-03-27T23:48:46.337Z,84.67
2023-03-27T23:49:46.357Z,72.82
2023-03-27T23:50:46.394Z,70.89
2023-03-27T23:51:46.429Z,87.46
2023-03-27T23:52:46.452Z,67.74
2023-03-27T23:53:46.483Z,85.48
2023-03-27T23:54:46.542Z,95.20
2023-03-27T23:55:46.556Z,98.71
2023-03-27T23:56:46.647Z,77.69
2023-03-27T23:57:46.650Z,80.43
2023-03-27T23:58:46.671Z,82.53
2023-03-27T23:59:46.689Z,79.15
